sensor_id;sensor_type;location;lat;lon;timestamp;pressure;altitude;pressure_sealevel;temperature;humidity
53440;BME280;39333;47.044;15.080;2022-11-23T00:02:04;94671.44;;;3.44;84.94
53440;BME280;39333;47.044;15.080;2022-11-23T00:04:31;94669.59;;;3.44;84.39
53440;BME280;39333;47.044;15.080;2022-11-23T00:06:57;94668.81;;;3.44;84.13
53440;BME280;39333;47.044;15.080;2022-11-23T00:09:24;94670.97;;;3.47;83.47
53440;BME280;39333;47.044;15.080;2022-11-23T00:11:50;94672.00;;;3.46;83.85
53440;BME280;39333;47.044;15.080;2022-11-23T00:14:17;94673.81;;;3.45;83.73
53440;BME280;39333;47.044;15.080;2022-11-23T00:16:44;94681.44;;;3.47;84.14
53440;BME280;39333;47.044;15.080;2022-11-23T00:19:10;94685.66;;;3.48;84.03
53440;BME280;39333;47.044;15.080;2022-11-23T00:21:37;94675.97;;;3.48;84.06
53440;BME280;39333;47.044;15.080;2022-11-23T00:24:04;94681.78;;;3.50;83.98
53440;BME280;39333;47.044;15.080;2022-11-23T00:26:30;94676.78;;;3.49;84.14
53440;BME280;39333;47.044;15.080;2022-11-23T00:28:57;94675.97;;;3.48;83.78
53440;BME280;39333;47.044;15.080;2022-11-23T00:31:25;94668.13;;;3.48;83.57
53440;BME280;39333;47.044;15.080;2022-11-23T00:33:53;94667.88;;;3.50;83.45
53440;BME280;39333;47.044;15.080;2022-11-23T00:36:22;94664.22;;;3.51;83.82
53440;BME280;39333;47.044;15.080;2022-11-23T00:38:51;94672.66;;;3.53;83.61
53440;BME280;39333;47.044;15.080;2022-11-23T00:41:22;94674.25;;;3.54;83.51
53440;BME280;39333;47.044;15.080;2022-11-23T00:43:50;94670.28;;;3.51;83.64
53440;BME280;39333;47.044;15.080;2022-11-23T00:46:25;94666.06;;;3.50;83.56
53440;BME280;39333;47.044;15.080;2022-11-23T00:48:54;94666.28;;;3.49;83.51
53440;BME280;39333;47.044;15.080;2022-11-23T00:51:23;94671.06;;;3.52;84.15
53440;BME280;39333;47.044;15.080;2022-11-23T00:53:51;94671.06;;;3.52;83.95
53440;BME280;39333;47.044;15.080;2022-11-23T00:56:18;94670.28;;;3.51;83.77
53440;BME280;39333;47.044;15.080;2022-11-23T00:58:50;94672.09;;;3.51;83.20
53440;BME280;39333;47.044;15.080;2022-11-23T01:01:20;94669.47;;;3.51;83.23
53440;BME280;39333;47.044;15.080;2022-11-23T01:03:49;94670.03;;;3.53;83.46
53440;BME280;39333;47.044;15.080;2022-11-23T01:06:20;94670.84;;;3.54;83.86
53440;BME280;39333;47.044;15.080;2022-11-23T01:08:52;94667.97;;;3.55;83.71
53440;BME280;39333;47.044;15.080;2022-11-23T01:11:21;94664.22;;;3.51;84.00
53440;BME280;39333;47.044;15.080;2022-11-23T01:13:49;94669.81;;;3.55;83.88
53440;BME280;39333;47.044;15.080;2022-11-23T01:16:29;94666.38;;;3.54;83.98
53440;BME280;39333;47.044;15.080;2022-11-23T01:19:03;94669.00;;;3.54;84.15
53440;BME280;39333;47.044;15.080;2022-11-23T01:21:31;94666.94;;;3.56;83.85
53440;BME280;39333;47.044;15.080;2022-11-23T01:23:59;94667.19;;;3.55;84.46
53440;BME280;39333;47.044;15.080;2022-11-23T01:26:26;94673.00;;;3.57;83.95
53440;BME280;39333;47.044;15.080;2022-11-23T01:28:56;94672.72;;;3.58;83.66
53440;BME280;39333;47.044;15.080;2022-11-23T01:31:24;94663.31;;;3.57;83.95
53440;BME280;39333;47.044;15.080;2022-11-23T01:33:52;94669.06;;;3.59;84.09
53440;BME280;39333;47.044;15.080;2022-11-23T01:36:23;94668.84;;;3.61;84.55
53440;BME280;39333;47.044;15.080;2022-11-23T01:38:50;94665.66;;;3.59;84.75
53440;BME280;39333;47.044;15.080;2022-11-23T01:41:21;94670.09;;;3.58;84.37
53440;BME280;39333;47.044;15.080;2022-11-23T01:43:49;94667.97;;;3.55;83.74
53440;BME280;39333;47.044;15.080;2022-11-23T01:46:17;94667.75;;;3.57;84.05
53440;BME280;39333;47.044;15.080;2022-11-23T01:51:15;94675.34;;;3.58;83.90
53440;BME280;39333;47.044;15.080;2022-11-23T01:53:45;94677.97;;;3.58;83.78
53440;BME280;39333;47.044;15.080;2022-11-23T01:56:16;94684.72;;;3.54;84.18
53440;BME280;39333;47.044;15.080;2022-11-23T01:58:47;94682.13;;;3.54;83.70
53440;BME280;39333;47.044;15.080;2022-11-23T02:01:15;94675.28;;;3.53;83.77
53440;BME280;39333;47.044;15.080;2022-11-23T02:03:45;94672.41;;;3.55;83.84
53440;BME280;39333;47.044;15.080;2022-11-23T02:06:16;94686.31;;;3.55;83.88
53440;BME280;39333;47.044;15.080;2022-11-23T02:08:43;94683.94;;;3.54;84.03
53440;BME280;39333;47.044;15.080;2022-11-23T02:11:12;94689.06;;;3.48;84.28
53440;BME280;39333;47.044;15.080;2022-11-23T02:13:40;94690.91;;;3.48;84.96
53440;BME280;39333;47.044;15.080;2022-11-23T02:16:08;94689.06;;;3.48;84.61
53440;BME280;39333;47.044;15.080;2022-11-23T02:18:36;94691.34;;;3.45;84.95
53440;BME280;39333;47.044;15.080;2022-11-23T02:21:06;94690.34;;;3.46;85.63
53440;BME280;39333;47.044;15.080;2022-11-23T02:24:10;94688.19;;;3.43;85.92
53440;BME280;39333;47.044;15.080;2022-11-23T02:26:31;94684.53;;;3.44;85.75
53440;BME280;39333;47.044;15.080;2022-11-23T02:29:02;94693.28;;;3.49;85.36
53440;BME280;39333;47.044;15.080;2022-11-23T02:31:31;94685.19;;;3.51;85.30
53440;BME280;39333;47.044;15.080;2022-11-23T02:33:58;94693.63;;;3.53;85.66
53440;BME280;39333;47.044;15.080;2022-11-23T02:36:42;94690.44;;;3.51;84.79
53440;BME280;39333;47.044;15.080;2022-11-23T02:41:47;94694.66;;;3.52;84.01
53440;BME280;39333;47.044;15.080;2022-11-23T02:44:41;94694.41;;;3.54;84.09
53440;BME280;39333;47.044;15.080;2022-11-23T02:47:12;94701.72;;;3.51;84.17
53440;BME280;39333;47.044;15.080;2022-11-23T02:49:45;94699.66;;;3.54;84.23
53440;BME280;39333;47.044;15.080;2022-11-23T02:52:12;94698.28;;;3.51;84.41
53440;BME280;39333;47.044;15.080;2022-11-23T02:54:38;94703.63;;;3.56;84.43
53440;BME280;39333;47.044;15.080;2022-11-23T02:57:05;94709.09;;;3.55;84.18
53440;BME280;39333;47.044;15.080;2022-11-23T02:59:32;94706.94;;;3.51;84.42
53440;BME280;39333;47.044;15.080;2022-11-23T03:02:01;94717.78;;;3.55;84.00
53440;BME280;39333;47.044;15.080;2022-11-23T03:04:30;94709.91;;;3.55;84.26
53440;BME280;39333;47.044;15.080;2022-11-23T03:06:57;94717.03;;;3.60;84.39
53440;BME280;39333;47.044;15.080;2022-11-23T03:09:24;94717.03;;;3.60;84.38
53440;BME280;39333;47.044;15.080;2022-11-23T03:11:52;94715.22;;;3.60;84.40
53440;BME280;39333;47.044;15.080;2022-11-23T03:14:19;94712.03;;;3.58;83.99
53440;BME280;39333;47.044;15.080;2022-11-23T03:16:52;94718.88;;;3.59;84.12
53440;BME280;39333;47.044;15.080;2022-11-23T03:19:19;94721.47;;;3.59;83.80
53440;BME280;39333;47.044;15.080;2022-11-23T03:21:47;94715.44;;;3.59;83.99
53440;BME280;39333;47.044;15.080;2022-11-23T03:24:14;94719.91;;;3.58;84.14
53440;BME280;39333;47.044;15.080;2022-11-23T03:26:43;94722.28;;;3.60;83.65
53440;BME280;39333;47.044;15.080;2022-11-23T03:29:15;94721.47;;;3.59;83.85
53440;BME280;39333;47.044;15.080;2022-11-23T03:31:42;94723.56;;;3.57;84.19
53440;BME280;39333;47.044;15.080;2022-11-23T03:34:12;94717.03;;;3.60;83.88
53440;BME280;39333;47.044;15.080;2022-11-23T03:36:39;94720.00;;;3.63;83.98
53440;BME280;39333;47.044;15.080;2022-11-23T03:39:07;94718.41;;;3.62;84.53
53440;BME280;39333;47.044;15.080;2022-11-23T03:42:06;94715.56;;;3.64;84.64
53440;BME280;39333;47.044;15.080;2022-11-23T03:44:34;94706.31;;;3.61;84.23
53440;BME280;39333;47.044;15.080;2022-11-23T03:47:00;94716.00;;;3.61;84.24
53440;BME280;39333;47.044;15.080;2022-11-23T03:49:27;94718.88;;;3.59;84.09
53440;BME280;39333;47.044;15.080;2022-11-23T03:51:54;94728.09;;;3.62;84.18
53440;BME280;39333;47.044;15.080;2022-11-23T03:54:21;94716.81;;;3.61;84.01
53440;BME280;39333;47.044;15.080;2022-11-23T03:56:49;94716.81;;;3.61;84.04
53440;BME280;39333;47.044;15.080;2022-11-23T03:59:16;94718.88;;;3.59;84.61
53440;BME280;39333;47.044;15.080;2022-11-23T04:01:43;94708.31;;;3.54;84.42
53440;BME280;39333;47.044;15.080;2022-11-23T04:04:17;94708.09;;;3.56;84.72
53440;BME280;39333;47.044;15.080;2022-11-23T04:07:10;94702.63;;;3.45;85.33
53440;BME280;39333;47.044;15.080;2022-11-23T04:09:42;94707.53;;;3.42;85.39
53440;BME280;39333;47.044;15.080;2022-11-23T04:12:26;94704.84;;;3.37;86.08
53440;BME280;39333;47.044;15.080;2022-11-23T04:14:54;94713.75;;;3.36;85.86
53440;BME280;39333;47.044;15.080;2022-11-23T04:17:20;94713.84;;;3.41;85.57
53440;BME280;39333;47.044;15.080;2022-11-23T04:19:47;94702.78;;;3.39;85.13
53440;BME280;39333;47.044;15.080;2022-11-23T04:22:16;94710.97;;;3.42;84.60
53440;BME280;39333;47.044;15.080;2022-11-23T04:24:43;94709.13;;;3.43;84.63
53440;BME280;39333;47.044;15.080;2022-11-23T04:27:10;94708.72;;;3.34;85.48
53440;BME280;39333;47.044;15.080;2022-11-23T04:29:37;94713.97;;;3.34;85.88
53440;BME280;39333;47.044;15.080;2022-11-23T04:32:04;94708.25;;;3.37;85.69
53440;BME280;39333;47.044;15.080;2022-11-23T04:34:31;94709.28;;;3.36;85.96
53440;BME280;39333;47.044;15.080;2022-11-23T04:37:00;94717.94;;;3.37;86.28
53440;BME280;39333;47.044;15.080;2022-11-23T04:39:35;94712.47;;;3.38;86.35
53440;BME280;39333;47.044;15.080;2022-11-23T04:42:15;94722.16;;;3.38;85.64
53440;BME280;39333;47.044;15.080;2022-11-23T04:44:47;94723.53;;;3.40;85.28
53440;BME280;39333;47.044;15.080;2022-11-23T04:47:15;94725.09;;;3.41;84.65
53440;BME280;39333;47.044;15.080;2022-11-23T04:49:44;94734.06;;;3.45;84.42
53440;BME280;39333;47.044;15.080;2022-11-23T04:52:11;94738.06;;;3.48;84.71
53440;BME280;39333;47.044;15.080;2022-11-23T04:54:44;94737.03;;;3.49;84.77
53440;BME280;39333;47.044;15.080;2022-11-23T04:57:11;94744.91;;;3.49;85.05
53440;BME280;39333;47.044;15.080;2022-11-23T04:59:38;94741.47;;;3.48;84.28
53440;BME280;39333;47.044;15.080;2022-11-23T05:02:05;94741.25;;;3.50;84.14
53440;BME280;39333;47.044;15.080;2022-11-23T05:04:43;94736.81;;;3.50;83.62
53440;BME280;39333;47.044;15.080;2022-11-23T05:07:11;94752.53;;;3.50;83.98
53440;BME280;39333;47.044;15.080;2022-11-23T05:09:40;94758.78;;;3.49;84.04
53440;BME280;39333;47.044;15.080;2022-11-23T05:12:19;94756.63;;;3.46;84.07
53440;BME280;39333;47.044;15.080;2022-11-23T05:14:45;94761.88;;;3.46;84.28
53440;BME280;39333;47.044;15.080;2022-11-23T05:17:17;94763.47;;;3.47;84.37
53440;BME280;39333;47.044;15.080;2022-11-23T05:19:46;94768.47;;;3.49;83.63
53440;BME280;39333;47.044;15.080;2022-11-23T05:22:12;94766.41;;;3.51;83.74
53440;BME280;39333;47.044;15.080;2022-11-23T05:24:40;94762.22;;;3.50;83.80
53440;BME280;39333;47.044;15.080;2022-11-23T05:27:12;94757.75;;;3.50;83.89
53440;BME280;39333;47.044;15.080;2022-11-23T05:29:39;94764.81;;;3.50;84.08
53440;BME280;39333;47.044;15.080;2022-11-23T05:32:06;94769.28;;;3.49;84.83
53440;BME280;39333;47.044;15.080;2022-11-23T05:34:33;94761.31;;;3.44;85.63
53440;BME280;39333;47.044;15.080;2022-11-23T05:37:02;94761.31;;;3.44;85.33
53440;BME280;39333;47.044;15.080;2022-11-23T05:39:28;94772.00;;;3.43;85.17
53440;BME280;39333;47.044;15.080;2022-11-23T05:41:58;94768.38;;;3.44;85.10
53440;BME280;39333;47.044;15.080;2022-11-23T05:44:40;94771.00;;;3.44;84.98
53440;BME280;39333;47.044;15.080;2022-11-23T05:47:13;94785.69;;;3.45;85.06
53440;BME280;39333;47.044;15.080;2022-11-23T05:49:39;94783.06;;;3.45;84.32
53440;BME280;39333;47.044;15.080;2022-11-23T05:52:06;94791.50;;;3.47;84.58
53440;BME280;39333;47.044;15.080;2022-11-23T05:54:35;94788.31;;;3.45;84.36
53440;BME280;39333;47.044;15.080;2022-11-23T05:57:11;94782.03;;;3.46;84.82
53440;BME280;39333;47.044;15.080;2022-11-23T05:59:39;94786.41;;;3.40;85.72
53440;BME280;39333;47.044;15.080;2022-11-23T06:02:09;94797.69;;;3.41;85.39
53440;BME280;39333;47.044;15.080;2022-11-23T06:04:36;94803.69;;;3.41;85.18
53440;BME280;39333;47.044;15.080;2022-11-23T06:07:06;94799.50;;;3.40;84.82
53440;BME280;39333;47.044;15.080;2022-11-23T06:09:52;94797.69;;;3.41;84.54
53440;BME280;39333;47.044;15.080;2022-11-23T06:12:19;94797.69;;;3.41;84.80
53440;BME280;39333;47.044;15.080;2022-11-23T06:14:47;94806.06;;;3.43;84.53
53440;BME280;39333;47.044;15.080;2022-11-23T06:17:17;94813.13;;;3.42;84.54
53440;BME280;39333;47.044;15.080;2022-11-23T06:19:47;94811.31;;;3.43;84.09
53440;BME280;39333;47.044;15.080;2022-11-23T06:22:14;94806.88;;;3.43;83.62
53440;BME280;39333;47.044;15.080;2022-11-23T06:24:50;94809.50;;;3.43;83.81
53440;BME280;39333;47.044;15.080;2022-11-23T06:27:36;94811.31;;;3.43;83.79
53440;BME280;39333;47.044;15.080;2022-11-23T06:30:12;94811.09;;;3.44;83.69
53440;BME280;39333;47.044;15.080;2022-11-23T06:32:40;94809.50;;;3.43;84.00
53440;BME280;39333;47.044;15.080;2022-11-23T06:35:07;94823.97;;;3.46;83.76
53440;BME280;39333;47.044;15.080;2022-11-23T06:37:38;94824.91;;;3.40;83.72
53440;BME280;39333;47.044;15.080;2022-11-23T06:40:05;94823.88;;;3.41;84.17
53440;BME280;39333;47.044;15.080;2022-11-23T06:42:32;94826.50;;;3.41;84.36
53440;BME280;39333;47.044;15.080;2022-11-23T06:45:14;94823.97;;;3.46;84.53
53440;BME280;39333;47.044;15.080;2022-11-23T06:47:41;94831.59;;;3.47;84.42
53440;BME280;39333;47.044;15.080;2022-11-23T06:50:10;94823.50;;;3.49;84.06
53440;BME280;39333;47.044;15.080;2022-11-23T06:52:37;94834.09;;;3.54;83.97
53440;BME280;39333;47.044;15.080;2022-11-23T06:55:04;94839.41;;;3.59;83.79
53440;BME280;39333;47.044;15.080;2022-11-23T06:57:31;94827.69;;;3.62;84.11
53440;BME280;39333;47.044;15.080;2022-11-23T06:59:58;94829.84;;;3.65;84.30
53440;BME280;39333;47.044;15.080;2022-11-23T07:02:31;94834.41;;;3.69;83.93
53440;BME280;39333;47.044;15.080;2022-11-23T07:04:58;94836.56;;;3.72;84.25
53440;BME280;39333;47.044;15.080;2022-11-23T07:07:27;94842.91;;;3.76;83.78
53440;BME280;39333;47.044;15.080;2022-11-23T07:10:03;94843.69;;;3.77;83.81
53440;BME280;39333;47.044;15.080;2022-11-23T07:12:44;94849.50;;;3.79;84.07
53440;BME280;39333;47.044;15.080;2022-11-23T07:15:13;94841.06;;;3.77;84.23
53440;BME280;39333;47.044;15.080;2022-11-23T07:17:42;94855.53;;;3.79;84.75
53440;BME280;39333;47.044;15.080;2022-11-23T07:20:13;94851.91;;;3.80;84.32
53440;BME280;39333;47.044;15.080;2022-11-23T07:22:40;94845.06;;;3.79;84.86
53440;BME280;39333;47.044;15.080;2022-11-23T07:25:07;94851.09;;;3.80;84.39
53440;BME280;39333;47.044;15.080;2022-11-23T07:27:34;94853.50;;;3.81;84.63
53440;BME280;39333;47.044;15.080;2022-11-23T07:30:03;94851.44;;;3.83;84.83
53440;BME280;39333;47.044;15.080;2022-11-23T07:32:29;94855.50;;;3.91;84.89
53440;BME280;39333;47.044;15.080;2022-11-23T07:34:56;94870.31;;;3.97;84.77
53440;BME280;39333;47.044;15.080;2022-11-23T07:37:24;94860.16;;;4.01;84.36
53440;BME280;39333;47.044;15.080;2022-11-23T07:39:51;94856.59;;;4.07;83.95
53440;BME280;39333;47.044;15.080;2022-11-23T07:42:25;94861.38;;;4.10;83.68
53440;BME280;39333;47.044;15.080;2022-11-23T07:45:10;94863.75;;;4.11;84.38
53440;BME280;39333;47.044;15.080;2022-11-23T07:47:41;94857.81;;;4.16;84.53
53440;BME280;39333;47.044;15.080;2022-11-23T07:50:09;94855.28;;;4.21;84.91
53440;BME280;39333;47.044;15.080;2022-11-23T07:52:37;94850.59;;;4.23;85.29
53440;BME280;39333;47.044;15.080;2022-11-23T07:55:05;94856.41;;;4.25;84.65
53440;BME280;39333;47.044;15.080;2022-11-23T07:57:31;94858.09;;;4.31;84.21
53440;BME280;39333;47.044;15.080;2022-11-23T07:59:58;94851.34;;;4.35;83.82
53440;BME280;39333;47.044;15.080;2022-11-23T08:02:25;94862.41;;;4.37;83.47
53440;BME280;39333;47.044;15.080;2022-11-23T08:04:52;94858.09;;;4.31;84.36
53440;BME280;39333;47.044;15.080;2022-11-23T08:07:18;94861.66;;;4.25;84.42
53440;BME280;39333;47.044;15.080;2022-11-23T08:09:45;94865.41;;;4.29;84.18
53440;BME280;39333;47.044;15.080;2022-11-23T08:12:12;94873.38;;;4.34;83.18
53440;BME280;39333;47.044;15.080;2022-11-23T08:14:38;94867.31;;;4.34;83.41
53440;BME280;39333;47.044;15.080;2022-11-23T08:17:05;94882.59;;;4.37;84.02
53440;BME280;39333;47.044;15.080;2022-11-23T08:19:32;94886.09;;;4.42;83.98
53440;BME280;39333;47.044;15.080;2022-11-23T08:21:58;94878.88;;;4.49;84.07
53440;BME280;39333;47.044;15.080;2022-11-23T08:24:25;94876.09;;;4.56;83.81
53440;BME280;39333;47.044;15.080;2022-11-23T08:26:52;94872.75;;;4.61;83.10
53440;BME280;39333;47.044;15.080;2022-11-23T08:29:18;94881.75;;;4.65;82.83
53440;BME280;39333;47.044;15.080;2022-11-23T08:31:45;94881.75;;;4.65;82.44
53440;BME280;39333;47.044;15.080;2022-11-23T08:34:12;94876.03;;;4.68;82.11
53440;BME280;39333;47.044;15.080;2022-11-23T08:36:39;94879.75;;;4.72;82.64
53440;BME280;39333;47.044;15.080;2022-11-23T08:39:06;94892.41;;;4.75;82.09
53440;BME280;39333;47.044;15.080;2022-11-23T08:41:34;94884.63;;;4.80;82.08
53440;BME280;39333;47.044;15.080;2022-11-23T08:44:00;94883.38;;;4.82;82.28
53440;BME280;39333;47.044;15.080;2022-11-23T08:46:27;94889.41;;;4.83;82.28
53440;BME280;39333;47.044;15.080;2022-11-23T08:48:54;94888.38;;;4.84;82.57
53440;BME280;39333;47.044;15.080;2022-11-23T08:51:20;94887.34;;;4.85;82.35
53440;BME280;39333;47.044;15.080;2022-11-23T08:53:50;94888.44;;;4.89;82.24
53440;BME280;39333;47.044;15.080;2022-11-23T08:56:17;94888.53;;;4.94;82.37
53440;BME280;39333;47.044;15.080;2022-11-23T08:58:44;94894.91;;;4.98;82.56
53440;BME280;39333;47.044;15.080;2022-11-23T09:01:15;94894.91;;;4.98;82.50
53440;BME280;39333;47.044;15.080;2022-11-23T09:03:43;94889.44;;;5.00;82.50
53440;BME280;39333;47.044;15.080;2022-11-23T09:06:10;94889.75;;;5.03;82.81
53440;BME280;39333;47.044;15.080;2022-11-23T09:08:37;94890.59;;;5.09;82.64
53440;BME280;39333;47.044;15.080;2022-11-23T09:11:06;94897.06;;;5.18;82.58
53440;BME280;39333;47.044;15.080;2022-11-23T09:13:36;94897.44;;;5.26;81.75
53440;BME280;39333;47.044;15.080;2022-11-23T09:16:04;94896.97;;;5.30;81.94
53440;BME280;39333;47.044;15.080;2022-11-23T09:18:34;94900.94;;;5.32;81.75
53440;BME280;39333;47.044;15.080;2022-11-23T09:21:03;94910.00;;;5.41;82.09
53440;BME280;39333;47.044;15.080;2022-11-23T09:23:31;94911.44;;;5.49;82.46
53440;BME280;39333;47.044;15.080;2022-11-23T09:25:59;94910.16;;;5.51;82.23
53440;BME280;39333;47.044;15.080;2022-11-23T09:28:26;94901.22;;;5.52;80.68
53440;BME280;39333;47.044;15.080;2022-11-23T09:30:55;94896.91;;;5.63;81.16
53440;BME280;39333;47.044;15.080;2022-11-23T09:33:23;94893.03;;;5.71;80.78
53440;BME280;39333;47.044;15.080;2022-11-23T09:36:01;94894.47;;;5.78;80.09
53440;BME280;39333;47.044;15.080;2022-11-23T09:38:28;94899.66;;;5.73;79.17
53440;BME280;39333;47.044;15.080;2022-11-23T09:44:23;94893.75;;;5.83;79.53
53440;BME280;39333;47.044;15.080;2022-11-23T09:47:20;94892.53;;;5.90;78.94
53440;BME280;39333;47.044;15.080;2022-11-23T09:50:14;94893.16;;;5.97;79.38
53440;BME280;39333;47.044;15.080;2022-11-23T09:52:46;94891.50;;;5.91;77.86
53440;BME280;39333;47.044;15.080;2022-11-23T09:57:45;94890.06;;;6.01;78.42
53440;BME280;39333;47.044;15.080;2022-11-23T10:00:21;94891.03;;;5.94;77.87
53440;BME280;39333;47.044;15.080;2022-11-23T10:02:48;94891.56;;;5.96;78.12
53440;BME280;39333;47.044;15.080;2022-11-23T10:05:22;94895.25;;;5.95;77.89
53440;BME280;39333;47.044;15.080;2022-11-23T10:08:05;94890.06;;;6.01;78.65
53440;BME280;39333;47.044;15.080;2022-11-23T10:10:44;94889.75;;;5.97;78.78
53440;BME280;39333;47.044;15.080;2022-11-23T10:13:33;94891.25;;;5.93;78.50
53440;BME280;39333;47.044;15.080;2022-11-23T10:21:45;94898.06;;;6.11;77.97
53440;BME280;39333;47.044;15.080;2022-11-23T10:24:21;94883.06;;;6.11;78.19
53440;BME280;39333;47.044;15.080;2022-11-23T10:26:50;94881.63;;;6.25;78.74
53440;BME280;39333;47.044;15.080;2022-11-23T10:29:30;94876.19;;;6.32;78.24
53440;BME280;39333;47.044;15.080;2022-11-23T10:31:58;94880.25;;;6.45;78.00
53440;BME280;39333;47.044;15.080;2022-11-23T10:34:47;94882.41;;;6.48;77.63
53440;BME280;39333;47.044;15.080;2022-11-23T10:37:15;94882.19;;;6.54;77.08
53440;BME280;39333;47.044;15.080;2022-11-23T10:39:43;94882.50;;;6.58;76.93
53440;BME280;39333;47.044;15.080;2022-11-23T10:42:37;94892.53;;;6.61;76.30
53440;BME280;39333;47.044;15.080;2022-11-23T10:45:21;94890.63;;;6.56;75.96
53440;BME280;39333;47.044;15.080;2022-11-23T10:47:59;94884.31;;;6.57;76.22
53440;BME280;39333;47.044;15.080;2022-11-23T10:50:31;94888.19;;;6.50;76.10
53440;BME280;39333;47.044;15.080;2022-11-23T10:55:52;94884.88;;;6.59;76.46
53440;BME280;39333;47.044;15.080;2022-11-23T10:58:33;94888.63;;;6.63;76.57
53440;BME280;39333;47.044;15.080;2022-11-23T11:01:15;94881.75;;;6.62;75.70
53440;BME280;39333;47.044;15.080;2022-11-23T11:03:42;94893.31;;;6.61;76.46
53440;BME280;39333;47.044;15.080;2022-11-23T11:06:09;94872.81;;;6.63;75.78
53440;BME280;39333;47.044;15.080;2022-11-23T11:08:53;94885.50;;;6.72;75.82
53440;BME280;39333;47.044;15.080;2022-11-23T11:11:32;94891.13;;;6.80;75.48
53440;BME280;39333;47.044;15.080;2022-11-23T11:16:46;94878.53;;;6.87;75.71
53440;BME280;39333;47.044;15.080;2022-11-23T11:19:31;94879.09;;;6.89;75.20
53440;BME280;39333;47.044;15.080;2022-11-23T11:22:00;94880.66;;;6.90;75.03
53440;BME280;39333;47.044;15.080;2022-11-23T11:24:42;94876.44;;;6.89;75.77
53440;BME280;39333;47.044;15.080;2022-11-23T11:27:16;94878.34;;;6.94;74.67
53440;BME280;39333;47.044;15.080;2022-11-23T11:32:31;94880.97;;;6.94;74.02
53440;BME280;39333;47.044;15.080;2022-11-23T11:37:43;94875.59;;;6.84;74.58
53440;BME280;39333;47.044;15.080;2022-11-23T11:40:46;94877.00;;;6.91;75.07
53440;BME280;39333;47.044;15.080;2022-11-23T11:43:52;94877.53;;;6.93;74.46
53440;BME280;39333;47.044;15.080;2022-11-23T11:46:28;94872.56;;;6.97;74.45
53440;BME280;39333;47.044;15.080;2022-11-23T11:49:08;94879.44;;;7.03;74.92
53440;BME280;39333;47.044;15.080;2022-11-23T11:51:41;94863.88;;;7.01;74.54
53440;BME280;39333;47.044;15.080;2022-11-23T11:57:02;94863.13;;;7.06;75.33
53440;BME280;39333;47.044;15.080;2022-11-23T11:59:45;94861.59;;;7.10;75.36
53440;BME280;39333;47.044;15.080;2022-11-23T12:07:35;94859.97;;;7.04;74.61
53440;BME280;39333;47.044;15.080;2022-11-23T12:10:17;94856.53;;;7.03;74.92
53440;BME280;39333;47.044;15.080;2022-11-23T12:12:45;94854.97;;;7.08;75.32
53440;BME280;39333;47.044;15.080;2022-11-23T12:15:23;94855.72;;;7.03;74.77
53440;BME280;39333;47.044;15.080;2022-11-23T12:18:22;94858.16;;;7.10;75.31
53440;BME280;39333;47.044;15.080;2022-11-23T12:24:07;94859.28;;;7.19;74.33
53440;BME280;39333;47.044;15.080;2022-11-23T12:26:46;94859.81;;;7.21;74.60
53440;BME280;39333;47.044;15.080;2022-11-23T12:37:45;94862.03;;;7.39;75.30
53440;BME280;39333;47.044;15.080;2022-11-23T12:43:25;94854.25;;;7.59;73.23
53440;BME280;39333;47.044;15.080;2022-11-23T12:49:44;94855.31;;;7.58;73.21
53440;BME280;39333;47.044;15.080;2022-11-23T12:57:36;94856.03;;;7.49;73.49
53440;BME280;39333;47.044;15.080;2022-11-23T13:00:04;94852.28;;;7.40;72.12
53440;BME280;39333;47.044;15.080;2022-11-23T13:05:22;94872.09;;;7.47;72.31
53440;BME280;39333;47.044;15.080;2022-11-23T13:11:10;94872.94;;;7.53;72.86
53440;BME280;39333;47.044;15.080;2022-11-23T13:13:44;94874.06;;;7.62;72.68
53440;BME280;39333;47.044;15.080;2022-11-23T13:19:11;94859.03;;;7.67;72.53
53440;BME280;39333;47.044;15.080;2022-11-23T13:21:43;94863.28;;;7.73;72.43
53440;BME280;39333;47.044;15.080;2022-11-23T13:24:31;94857.00;;;7.85;72.71
53440;BME280;39333;47.044;15.080;2022-11-23T13:40:25;94878.78;;;7.65;73.06
53440;BME280;39333;47.044;15.080;2022-11-23T13:42:55;94875.66;;;7.68;73.20
53440;BME280;39333;47.044;15.080;2022-11-23T13:45:25;94873.84;;;7.73;72.92
53440;BME280;39333;47.044;15.080;2022-11-23T13:48:17;94874.13;;;7.77;73.49
53440;BME280;39333;47.044;15.080;2022-11-23T13:51:04;94876.19;;;7.70;72.76
53440;BME280;39333;47.044;15.080;2022-11-23T13:53:32;94878.03;;;7.69;73.09
53440;BME280;39333;47.044;15.080;2022-11-23T13:58:54;94878.56;;;7.71;73.86
53440;BME280;39333;47.044;15.080;2022-11-23T14:04:40;94875.38;;;7.64;74.38
53440;BME280;39333;47.044;15.080;2022-11-23T14:07:15;94879.75;;;7.49;74.03
53440;BME280;39333;47.044;15.080;2022-11-23T14:09:49;94883.38;;;7.37;74.54
53440;BME280;39333;47.044;15.080;2022-11-23T14:12:19;94887.31;;;7.30;75.06
53440;BME280;39333;47.044;15.080;2022-11-23T14:20:48;94890.59;;;7.15;75.82
53440;BME280;39333;47.044;15.080;2022-11-23T14:26:30;94893.97;;;7.06;76.56
53440;BME280;39333;47.044;15.080;2022-11-23T14:40:21;94915.00;;;7.00;79.25
53440;BME280;39333;47.044;15.080;2022-11-23T14:42:53;94909.09;;;6.88;80.06
53440;BME280;39333;47.044;15.080;2022-11-23T14:45:22;94909.50;;;6.75;80.79
53440;BME280;39333;47.044;15.080;2022-11-23T14:47:49;94915.50;;;6.65;81.08
53440;BME280;39333;47.044;15.080;2022-11-23T14:52:50;94911.69;;;6.56;81.88
53440;BME280;39333;47.044;15.080;2022-11-23T14:55:27;94920.94;;;6.59;81.65
53440;BME280;39333;47.044;15.080;2022-11-23T14:57:58;94912.00;;;6.60;81.41
53440;BME280;39333;47.044;15.080;2022-11-23T15:00:30;94911.22;;;6.59;81.46
53440;BME280;39333;47.044;15.080;2022-11-23T15:03:05;94917.94;;;6.50;82.04
53440;BME280;39333;47.044;15.080;2022-11-23T15:06:05;94926.00;;;6.39;82.45
53440;BME280;39333;47.044;15.080;2022-11-23T15:08:42;94925.19;;;6.38;82.34
53440;BME280;39333;47.044;15.080;2022-11-23T15:11:15;94933.59;;;6.35;82.08
53440;BME280;39333;47.044;15.080;2022-11-23T15:13:48;94934.13;;;6.37;81.91